sensor_id;sensor_type;location;lat;lon;timestamp;P1;durP1;ratioP1;P2;durP2;ratioP2
61675;SDS011;47574;52.090;5.244;2022-09-01T00:01:45;3.0;;;1.11;;
61675;SDS011;47574;52.090;5.244;2022-09-01T00:03:24;3.3;;;1.3;;
61675;SDS011;47574;52.090;5.244;2022-09-01T00:06:42;1.5;;;0.9;;
61675;SDS011;47574;52.090;5.244;2022-09-01T00:08:19;2.9;;;1.3;;
61675;SDS011;47574;52.090;5.244;2022-09-01T00:09:56;2.7;;;1.3;;
61675;SDS011;47574;52.090;5.244;2022-09-01T00:13:10;2.7;;;1.3;;
61675;SDS011;47574;52.090;5.244;2022-09-01T00:14:47;2.0;;;1.11;;
61675;SDS011;47574;52.090;5.244;2022-09-01T00:16:24;2.5;;;1.2;;
61675;SDS011;47574;52.090;5.244;2022-09-01T00:18:00;2.0;;;1.2;;
61675;SDS011;47574;52.090;5.244;2022-09-01T00:21:15;1.9;;;1.3;;
61675;SDS011;47574;52.090;5.244;2022-09-01T00:22:54;1.8;;;1.4;;
61675;SDS011;47574;52.090;5.244;2022-09-01T00:27:44;2.6;;;1.5;;
61675;SDS011;47574;52.090;5.244;2022-09-01T00:29:20;2.7;;;1.5;;
61675;SDS011;47574;52.090;5.244;2022-09-01T00:30:57;3.1;;;1.7;;
61675;SDS011;47574;52.090;5.244;2022-09-01T00:32:33;1.9;;;1.6;;
61675;SDS011;47574;52.090;5.244;2022-09-01T00:35:46;2.21;;;1.5;;
61675;SDS011;47574;52.090;5.244;2022-09-01T00:37:23;2.9;;;1.9;;
61675;SDS011;47574;52.090;5.244;2022-09-01T00:38:59;2.8;;;1.5;;
61675;SDS011;47574;52.090;5.244;2022-09-01T00:42:12;2.5;;;2.0;;
61675;SDS011;47574;52.090;5.244;2022-09-01T00:43:49;4.2;;;1.7;;
61675;SDS011;47574;52.090;5.244;2022-09-01T00:45:29;4.91;;;1.7;;
61675;SDS011;47574;52.090;5.244;2022-09-01T00:48:42;2.1;;;1.9;;
61675;SDS011;47574;52.090;5.244;2022-09-01T00:50:18;2.31;;;1.7;;
61675;SDS011;47574;52.090;5.244;2022-09-01T00:51:56;2.4;;;1.8;;
61675;SDS011;47574;52.090;5.244;2022-09-01T00:53:44;5.11;;;2.1;;
61675;SDS011;47574;52.090;5.244;2022-09-01T00:57:03;4.2;;;2.21;;
61675;SDS011;47574;52.090;5.244;2022-09-01T00:58:40;3.7;;;2.4;;
61675;SDS011;47574;52.090;5.244;2022-09-01T01:00:18;5.6;;;2.7;;
61675;SDS011;47574;52.090;5.244;2022-09-01T01:01:59;3.2;;;2.4;;
61675;SDS011;47574;52.090;5.244;2022-09-01T01:05:14;5.11;;;2.7;;
61675;SDS011;47574;52.090;5.244;2022-09-01T01:06:57;4.3;;;2.7;;
61675;SDS011;47574;52.090;5.244;2022-09-01T01:08:36;4.41;;;2.5;;
61675;SDS011;47574;52.090;5.244;2022-09-01T01:10:17;5.9;;;2.6;;
61675;SDS011;47574;52.090;5.244;2022-09-01T01:13:47;2.9;;;2.5;;
61675;SDS011;47574;52.090;5.244;2022-09-01T01:15:26;3.6;;;2.4;;
61675;SDS011;47574;52.090;5.244;2022-09-01T01:17:03;5.2;;;2.9;;
61675;SDS011;47574;52.090;5.244;2022-09-01T01:18:40;5.2;;;2.6;;
61675;SDS011;47574;52.090;5.244;2022-09-01T01:23:14;4.1;;;2.4;;
61675;SDS011;47574;52.090;5.244;2022-09-01T01:24:57;3.3;;;2.8;;
61675;SDS011;47574;52.090;5.244;2022-09-01T01:28:12;3.2;;;2.4;;
61675;SDS011;47574;52.090;5.244;2022-09-01T01:29:52;3.7;;;2.31;;
61675;SDS011;47574;52.090;5.244;2022-09-01T01:31:31;3.6;;;2.5;;
61675;SDS011;47574;52.090;5.244;2022-09-01T01:34:46;3.1;;;2.0;;
61675;SDS011;47574;52.090;5.244;2022-09-01T01:36:31;4.61;;;2.1;;
61675;SDS011;47574;52.090;5.244;2022-09-01T01:38:10;3.0;;;2.1;;
61675;SDS011;47574;52.090;5.244;2022-09-01T01:39:47;2.9;;;2.1;;
61675;SDS011;47574;52.090;5.244;2022-09-01T01:43:00;2.7;;;1.8;;
61675;SDS011;47574;52.090;5.244;2022-09-01T01:44:39;2.8;;;2.0;;
61675;SDS011;47574;52.090;5.244;2022-09-01T01:47:56;2.31;;;2.0;;
61675;SDS011;47574;52.090;5.244;2022-09-01T01:51:12;3.2;;;2.1;;
61675;SDS011;47574;52.090;5.244;2022-09-01T01:52:53;2.1;;;1.9;;
61675;SDS011;47574;52.090;5.244;2022-09-01T01:54:31;2.9;;;1.8;;
61675;SDS011;47574;52.090;5.244;2022-09-01T01:57:49;3.5;;;2.0;;
61675;SDS011;47574;52.090;5.244;2022-09-01T01:59:25;3.7;;;1.8;;
61675;SDS011;47574;52.090;5.244;2022-09-01T02:01:02;2.0;;;1.5;;
61675;SDS011;47574;52.090;5.244;2022-09-01T02:02:38;2.31;;;1.8;;
61675;SDS011;47574;52.090;5.244;2022-09-01T02:05:55;4.3;;;2.0;;
61675;SDS011;47574;52.090;5.244;2022-09-01T02:07:31;2.5;;;1.7;;
61675;SDS011;47574;52.090;5.244;2022-09-01T02:09:08;2.9;;;1.9;;
61675;SDS011;47574;52.090;5.244;2022-09-01T02:12:24;2.9;;;1.8;;
61675;SDS011;47574;52.090;5.244;2022-09-01T02:14:00;3.6;;;1.9;;
61675;SDS011;47574;52.090;5.244;2022-09-01T02:15:43;1.6;;;1.5;;
61675;SDS011;47574;52.090;5.244;2022-09-01T02:17:21;3.0;;;2.1;;
61675;SDS011;47574;52.090;5.244;2022-09-01T02:20:36;3.6;;;1.5;;
61675;SDS011;47574;52.090;5.244;2022-09-01T02:22:12;2.31;;;1.9;;
61675;SDS011;47574;52.090;5.244;2022-09-01T02:23:50;4.5;;;1.6;;
61675;SDS011;47574;52.090;5.244;2022-09-01T02:27:06;2.21;;;1.6;;
61675;SDS011;47574;52.090;5.244;2022-09-01T02:28:43;2.4;;;1.8;;
61675;SDS011;47574;52.090;5.244;2022-09-01T02:30:22;4.2;;;1.7;;
61675;SDS011;47574;52.090;5.244;2022-09-01T02:32:01;2.21;;;1.5;;
61675;SDS011;47574;52.090;5.244;2022-09-01T02:35:18;4.3;;;2.5;;
61675;SDS011;47574;52.090;5.244;2022-09-01T02:36:56;2.5;;;1.8;;
61675;SDS011;47574;52.090;5.244;2022-09-01T02:38:32;2.1;;;1.7;;
61675;SDS011;47574;52.090;5.244;2022-09-01T02:40:09;2.21;;;1.5;;
61675;SDS011;47574;52.090;5.244;2022-09-01T02:43:22;2.4;;;1.6;;
61675;SDS011;47574;52.090;5.244;2022-09-01T02:44:59;2.7;;;1.5;;
61675;SDS011;47574;52.090;5.244;2022-09-01T02:46:37;2.7;;;1.5;;
61675;SDS011;47574;52.090;5.244;2022-09-01T02:50:02;2.1;;;1.5;;
61675;SDS011;47574;52.090;5.244;2022-09-01T02:51:40;3.6;;;1.5;;
61675;SDS011;47574;52.090;5.244;2022-09-01T02:53:18;3.4;;;1.6;;
61675;SDS011;47574;52.090;5.244;2022-09-01T02:54:56;1.6;;;1.5;;
61675;SDS011;47574;52.090;5.244;2022-09-01T02:58:15;3.5;;;1.4;;
61675;SDS011;47574;52.090;5.244;2022-09-01T02:59:57;3.4;;;1.5;;
61675;SDS011;47574;52.090;5.244;2022-09-01T03:04:50;2.31;;;1.6;;
61675;SDS011;47574;52.090;5.244;2022-09-01T03:06:33;1.8;;;1.7;;
61675;SDS011;47574;52.090;5.244;2022-09-01T03:08:14;3.2;;;1.7;;
61675;SDS011;47574;52.090;5.244;2022-09-01T03:09:51;3.7;;;1.9;;
61675;SDS011;47574;52.090;5.244;2022-09-01T03:13:11;1.8;;;1.6;;
61675;SDS011;47574;52.090;5.244;2022-09-01T03:14:49;1.9;;;1.7;;
61675;SDS011;47574;52.090;5.244;2022-09-01T03:16:25;4.61;;;1.8;;
61675;SDS011;47574;52.090;5.244;2022-09-01T03:18:03;2.8;;;1.5;;
61675;SDS011;47574;52.090;5.244;2022-09-01T03:21:20;2.8;;;1.7;;
61675;SDS011;47574;52.090;5.244;2022-09-01T03:22:58;2.8;;;1.6;;
61675;SDS011;47574;52.090;5.244;2022-09-01T03:24:35;3.1;;;1.7;;
61675;SDS011;47574;52.090;5.244;2022-09-01T03:26:12;3.5;;;1.7;;
61675;SDS011;47574;52.090;5.244;2022-09-01T03:29:27;4.41;;;2.0;;
61675;SDS011;47574;52.090;5.244;2022-09-01T03:31:04;3.7;;;1.7;;
61675;SDS011;47574;52.090;5.244;2022-09-01T03:32:41;4.41;;;1.8;;
61675;SDS011;47574;52.090;5.244;2022-09-01T03:35:58;2.6;;;1.7;;
61675;SDS011;47574;52.090;5.244;2022-09-01T03:37:36;3.6;;;1.7;;
61675;SDS011;47574;52.090;5.244;2022-09-01T03:39:12;2.8;;;1.9;;
61675;SDS011;47574;52.090;5.244;2022-09-01T03:42:28;3.3;;;1.8;;
61675;SDS011;47574;52.090;5.244;2022-09-01T03:44:06;2.31;;;1.5;;
61675;SDS011;47574;52.090;5.244;2022-09-01T03:45:42;2.31;;;1.5;;
61675;SDS011;47574;52.090;5.244;2022-09-01T03:47:20;3.2;;;1.9;;
61675;SDS011;47574;52.090;5.244;2022-09-01T03:50:40;2.6;;;1.6;;
61675;SDS011;47574;52.090;5.244;2022-09-01T03:52:18;3.3;;;1.8;;
61675;SDS011;47574;52.090;5.244;2022-09-01T03:53:54;2.5;;;1.6;;
61675;SDS011;47574;52.090;5.244;2022-09-01T03:55:31;4.0;;;1.8;;
61675;SDS011;47574;52.090;5.244;2022-09-01T03:58:46;3.6;;;2.0;;
61675;SDS011;47574;52.090;5.244;2022-09-01T04:00:23;4.2;;;1.7;;
61675;SDS011;47574;52.090;5.244;2022-09-01T04:02:02;3.0;;;2.1;;
61675;SDS011;47574;52.090;5.244;2022-09-01T04:05:17;3.4;;;1.7;;
61675;SDS011;47574;52.090;5.244;2022-09-01T04:06:54;3.7;;;1.6;;
61675;SDS011;47574;52.090;5.244;2022-09-01T04:08:30;3.4;;;1.7;;
61675;SDS011;47574;52.090;5.244;2022-09-01T04:11:47;2.8;;;1.8;;
61675;SDS011;47574;52.090;5.244;2022-09-01T04:13:26;2.0;;;1.7;;
61675;SDS011;47574;52.090;5.244;2022-09-01T04:15:07;1.7;;;1.6;;
61675;SDS011;47574;52.090;5.244;2022-09-01T04:19:38;3.5;;;1.9;;
61675;SDS011;47574;52.090;5.244;2022-09-01T04:21:14;2.8;;;1.8;;
61675;SDS011;47574;52.090;5.244;2022-09-01T04:22:51;3.6;;;1.9;;
61675;SDS011;47574;52.090;5.244;2022-09-01T04:26:08;3.5;;;1.9;;
61675;SDS011;47574;52.090;5.244;2022-09-01T04:27:48;1.8;;;1.6;;
61675;SDS011;47574;52.090;5.244;2022-09-01T04:29:27;2.7;;;1.7;;
61675;SDS011;47574;52.090;5.244;2022-09-01T04:31:08;1.9;;;1.7;;
61675;SDS011;47574;52.090;5.244;2022-09-01T04:34:27;2.4;;;1.5;;
61675;SDS011;47574;52.090;5.244;2022-09-01T04:36:06;3.1;;;1.8;;
61675;SDS011;47574;52.090;5.244;2022-09-01T04:37:54;1.7;;;1.6;;
61675;SDS011;47574;52.090;5.244;2022-09-01T04:39:30;3.0;;;1.7;;
61675;SDS011;47574;52.090;5.244;2022-09-01T04:42:44;4.5;;;2.21;;
61675;SDS011;47574;52.090;5.244;2022-09-01T04:44:21;4.5;;;2.21;;
61675;SDS011;47574;52.090;5.244;2022-09-01T04:45:58;3.1;;;1.8;;
61675;SDS011;47574;52.090;5.244;2022-09-01T04:49:19;1.9;;;1.7;;
61675;SDS011;47574;52.090;5.244;2022-09-01T04:50:58;1.9;;;1.7;;
61675;SDS011;47574;52.090;5.244;2022-09-01T04:52:34;3.8;;;2.1;;
61675;SDS011;47574;52.090;5.244;2022-09-01T04:54:13;2.31;;;1.6;;
61675;SDS011;47574;52.090;5.244;2022-09-01T04:57:30;2.7;;;1.8;;
61675;SDS011;47574;52.090;5.244;2022-09-01T04:59:07;3.9;;;1.7;;
61675;SDS011;47574;52.090;5.244;2022-09-01T05:00:44;2.4;;;1.9;;
61675;SDS011;47574;52.090;5.244;2022-09-01T05:04:02;3.0;;;1.7;;
61675;SDS011;47574;52.090;5.244;2022-09-01T05:05:38;3.3;;;1.7;;
61675;SDS011;47574;52.090;5.244;2022-09-01T05:07:20;2.0;;;1.8;;
61675;SDS011;47574;52.090;5.244;2022-09-01T05:08:56;2.0;;;1.8;;
61675;SDS011;47574;52.090;5.244;2022-09-01T05:12:15;5.0;;;1.9;;
61675;SDS011;47574;52.090;5.244;2022-09-01T05:13:56;2.7;;;1.7;;
61675;SDS011;47574;52.090;5.244;2022-09-01T05:15:35;2.9;;;1.7;;
61675;SDS011;47574;52.090;5.244;2022-09-01T05:17:12;2.5;;;1.8;;
61675;SDS011;47574;52.090;5.244;2022-09-01T05:20:29;2.7;;;2.21;;
61675;SDS011;47574;52.090;5.244;2022-09-01T05:22:06;3.0;;;1.8;;
61675;SDS011;47574;52.090;5.244;2022-09-01T05:23:46;2.1;;;1.9;;
61675;SDS011;47574;52.090;5.244;2022-09-01T05:26:59;2.1;;;1.9;;
61675;SDS011;47574;52.090;5.244;2022-09-01T05:28:37;2.21;;;1.8;;
61675;SDS011;47574;52.090;5.244;2022-09-01T05:30:16;2.9;;;1.7;;
61675;SDS011;47574;52.090;5.244;2022-09-01T05:31:54;2.21;;;1.8;;
61675;SDS011;47574;52.090;5.244;2022-09-01T05:35:08;4.5;;;1.7;;
61675;SDS011;47574;52.090;5.244;2022-09-01T05:36:45;1.7;;;1.6;;
61675;SDS011;47574;52.090;5.244;2022-09-01T05:38:23;2.8;;;1.8;;
61675;SDS011;47574;52.090;5.244;2022-09-01T05:41:40;2.7;;;1.7;;
61675;SDS011;47574;52.090;5.244;2022-09-01T05:43:17;4.3;;;1.7;;
61675;SDS011;47574;52.090;5.244;2022-09-01T05:44:53;1.8;;;1.6;;
61675;SDS011;47574;52.090;5.244;2022-09-01T05:46:29;1.7;;;1.6;;
61675;SDS011;47574;52.090;5.244;2022-09-01T05:49:46;2.7;;;1.9;;
61675;SDS011;47574;52.090;5.244;2022-09-01T05:51:26;4.7;;;2.21;;
61675;SDS011;47574;52.090;5.244;2022-09-01T05:53:09;4.0;;;1.7;;
61675;SDS011;47574;52.090;5.244;2022-09-01T05:54:46;3.1;;;1.6;;
61675;SDS011;47574;52.090;5.244;2022-09-01T05:58:01;3.4;;;1.7;;
61675;SDS011;47574;52.090;5.244;2022-09-01T05:59:41;2.4;;;1.5;;
61675;SDS011;47574;52.090;5.244;2022-09-01T06:01:21;3.4;;;1.6;;
61675;SDS011;47574;52.090;5.244;2022-09-01T06:04:43;2.5;;;1.4;;
61675;SDS011;47574;52.090;5.244;2022-09-01T06:06:21;1.7;;;1.6;;
61675;SDS011;47574;52.090;5.244;2022-09-01T06:08:01;2.0;;;1.5;;
61675;SDS011;47574;52.090;5.244;2022-09-01T06:09:38;2.9;;;1.6;;
61675;SDS011;47574;52.090;5.244;2022-09-01T06:12:55;4.3;;;1.5;;
61675;SDS011;47574;52.090;5.244;2022-09-01T06:14:31;4.0;;;1.7;;
61675;SDS011;47574;52.090;5.244;2022-09-01T06:16:08;3.1;;;1.7;;
61675;SDS011;47574;52.090;5.244;2022-09-01T06:17:45;3.3;;;1.5;;
61675;SDS011;47574;52.090;5.244;2022-09-01T06:20:58;2.8;;;1.8;;
61675;SDS011;47574;52.090;5.244;2022-09-01T06:22:38;4.8;;;1.8;;
61675;SDS011;47574;52.090;5.244;2022-09-01T06:24:17;1.8;;;1.7;;
61675;SDS011;47574;52.090;5.244;2022-09-01T06:27:31;1.7;;;1.6;;
61675;SDS011;47574;52.090;5.244;2022-09-01T06:29:09;4.2;;;2.0;;
61675;SDS011;47574;52.090;5.244;2022-09-01T06:30:50;2.8;;;1.7;;
61675;SDS011;47574;52.090;5.244;2022-09-01T06:32:27;3.8;;;1.6;;
61675;SDS011;47574;52.090;5.244;2022-09-01T06:35:46;3.7;;;1.8;;
61675;SDS011;47574;52.090;5.244;2022-09-01T06:37:22;2.31;;;1.6;;
61675;SDS011;47574;52.090;5.244;2022-09-01T06:39:00;2.9;;;1.7;;
61675;SDS011;47574;52.090;5.244;2022-09-01T06:42:18;2.9;;;1.5;;
61675;SDS011;47574;52.090;5.244;2022-09-01T06:43:54;4.2;;;1.8;;
61675;SDS011;47574;52.090;5.244;2022-09-01T06:45:33;3.3;;;1.8;;
61675;SDS011;47574;52.090;5.244;2022-09-01T06:47:14;2.8;;;1.7;;
61675;SDS011;47574;52.090;5.244;2022-09-01T06:50:27;2.8;;;1.6;;
61675;SDS011;47574;52.090;5.244;2022-09-01T06:52:03;5.11;;;1.9;;
61675;SDS011;47574;52.090;5.244;2022-09-01T06:53:40;3.7;;;1.6;;
61675;SDS011;47574;52.090;5.244;2022-09-01T06:56:53;2.5;;;1.6;;
61675;SDS011;47574;52.090;5.244;2022-09-01T06:58:30;4.7;;;1.4;;
61675;SDS011;47574;52.090;5.244;2022-09-01T07:00:08;4.7;;;1.7;;
61675;SDS011;47574;52.090;5.244;2022-09-01T07:01:47;3.0;;;1.5;;
61675;SDS011;47574;52.090;5.244;2022-09-01T07:05:01;2.1;;;1.7;;
61675;SDS011;47574;52.090;5.244;2022-09-01T07:06:38;2.1;;;1.7;;
61675;SDS011;47574;52.090;5.244;2022-09-01T07:08:18;2.0;;;1.6;;
61675;SDS011;47574;52.090;5.244;2022-09-01T07:11:33;3.6;;;1.7;;
61675;SDS011;47574;52.090;5.244;2022-09-01T07:13:11;2.6;;;1.8;;
61675;SDS011;47574;52.090;5.244;2022-09-01T07:14:48;6.0;;;1.7;;
61675;SDS011;47574;52.090;5.244;2022-09-01T07:16:25;3.7;;;1.4;;
61675;SDS011;47574;52.090;5.244;2022-09-01T07:19:39;2.6;;;1.5;;
61675;SDS011;47574;52.090;5.244;2022-09-01T07:21:15;2.7;;;1.7;;
61675;SDS011;47574;52.090;5.244;2022-09-01T07:22:53;3.9;;;1.5;;
61675;SDS011;47574;52.090;5.244;2022-09-01T07:26:17;3.4;;;1.5;;
61675;SDS011;47574;52.090;5.244;2022-09-01T07:27:56;7.3;;;1.6;;
61675;SDS011;47574;52.090;5.244;2022-09-01T07:29:34;3.9;;;1.4;;
61675;SDS011;47574;52.090;5.244;2022-09-01T07:31:15;3.5;;;1.5;;
61675;SDS011;47574;52.090;5.244;2022-09-01T07:34:40;2.21;;;1.4;;
61675;SDS011;47574;52.090;5.244;2022-09-01T07:36:17;2.0;;;1.4;;
61675;SDS011;47574;52.090;5.244;2022-09-01T07:37:55;3.8;;;1.6;;
61675;SDS011;47574;52.090;5.244;2022-09-01T07:39:31;6.4;;;1.6;;
61675;SDS011;47574;52.090;5.244;2022-09-01T07:42:43;4.0;;;1.5;;
61675;SDS011;47574;52.090;5.244;2022-09-01T07:44:20;4.0;;;1.5;;
61675;SDS011;47574;52.090;5.244;2022-09-01T07:45:58;4.5;;;1.7;;
61675;SDS011;47574;52.090;5.244;2022-09-01T07:49:15;1.5;;;1.2;;
61675;SDS011;47574;52.090;5.244;2022-09-01T07:50:52;4.61;;;1.4;;
61675;SDS011;47574;52.090;5.244;2022-09-01T07:52:30;2.31;;;1.2;;
61675;SDS011;47574;52.090;5.244;2022-09-01T07:54:12;5.0;;;1.4;;
61675;SDS011;47574;52.090;5.244;2022-09-01T07:57:30;2.1;;;1.3;;
61675;SDS011;47574;52.090;5.244;2022-09-01T07:59:08;2.1;;;1.3;;
61675;SDS011;47574;52.090;5.244;2022-09-01T08:00:45;6.4;;;2.21;;
61675;SDS011;47574;52.090;5.244;2022-09-01T08:02:23;3.7;;;1.5;;
61675;SDS011;47574;52.090;5.244;2022-09-01T08:05:37;5.9;;;1.3;;
61675;SDS011;47574;52.090;5.244;2022-09-01T08:07:13;3.7;;;1.11;;
61675;SDS011;47574;52.090;5.244;2022-09-01T08:08:51;2.8;;;1.3;;
61675;SDS011;47574;52.090;5.244;2022-09-01T08:12:09;4.1;;;1.2;;
61675;SDS011;47574;52.090;5.244;2022-09-01T08:13:46;2.6;;;1.4;;
61675;SDS011;47574;52.090;5.244;2022-09-01T08:15:22;3.9;;;1.11;;
61675;SDS011;47574;52.090;5.244;2022-09-01T08:16:59;2.9;;;1.3;;
61675;SDS011;47574;52.090;5.244;2022-09-01T08:20:13;4.7;;;1.11;;
61675;SDS011;47574;52.090;5.244;2022-09-01T08:21:49;2.0;;;0.9;;
61675;SDS011;47574;52.090;5.244;2022-09-01T08:23:26;4.61;;;0.8;;
61675;SDS011;47574;52.090;5.244;2022-09-01T08:26:40;2.8;;;1.0;;
61675;SDS011;47574;52.090;5.244;2022-09-01T08:28:16;5.9;;;1.0;;
61675;SDS011;47574;52.090;5.244;2022-09-01T08:29:53;3.2;;;0.8;;
61675;SDS011;47574;52.090;5.244;2022-09-01T08:33:06;1.8;;;0.8;;
61675;SDS011;47574;52.090;5.244;2022-09-01T08:34:43;2.21;;;0.9;;
61675;SDS011;47574;52.090;5.244;2022-09-01T08:36:20;5.9;;;1.3;;
61675;SDS011;47574;52.090;5.244;2022-09-01T08:37:57;1.5;;;0.9;;
61675;SDS011;47574;52.090;5.244;2022-09-01T08:41:13;2.31;;;0.9;;
61675;SDS011;47574;52.090;5.244;2022-09-01T08:42:57;3.9;;;0.9;;
61675;SDS011;47574;52.090;5.244;2022-09-01T08:44:46;4.2;;;1.11;;
61675;SDS011;47574;52.090;5.244;2022-09-01T08:46:35;2.6;;;1.0;;
61675;SDS011;47574;52.090;5.244;2022-09-01T08:49:57;4.5;;;0.9;;
61675;SDS011;47574;52.090;5.244;2022-09-01T08:51:36;3.9;;;1.2;;
61675;SDS011;47574;52.090;5.244;2022-09-01T08:53:19;3.9;;;1.11;;
61675;SDS011;47574;52.090;5.244;2022-09-01T08:55:05;6.2;;;1.2;;
61675;SDS011;47574;52.090;5.244;2022-09-01T08:56:50;3.1;;;1.11;;
61675;SDS011;47574;52.090;5.244;2022-09-01T09:00:09;4.41;;;0.9;;
61675;SDS011;47574;52.090;5.244;2022-09-01T09:01:51;1.4;;;1.0;;
61675;SDS011;47574;52.090;5.244;2022-09-01T09:03:37;1.2;;;0.7;;
61675;SDS011;47574;52.090;5.244;2022-09-01T09:05:27;3.7;;;0.9;;
61675;SDS011;47574;52.090;5.244;2022-09-01T09:08:55;1.7;;;0.7;;
61675;SDS011;47574;52.090;5.244;2022-09-01T09:10:37;2.7;;;0.9;;
61675;SDS011;47574;52.090;5.244;2022-09-01T09:12:26;3.6;;;0.8;;
61675;SDS011;47574;52.090;5.244;2022-09-01T09:14:33;2.1;;;0.7;;
61675;SDS011;47574;52.090;5.244;2022-09-01T09:16:26;1.6;;;0.7;;
61675;SDS011;47574;52.090;5.244;2022-09-01T09:18:11;3.4;;;0.7;;
61675;SDS011;47574;52.090;5.244;2022-09-01T09:20:04;1.0;;;0.7;;
61675;SDS011;47574;52.090;5.244;2022-09-01T09:23:23;2.4;;;0.7;;
61675;SDS011;47574;52.090;5.244;2022-09-01T09:25:08;4.2;;;0.9;;
61675;SDS011;47574;52.090;5.244;2022-09-01T09:26:47;5.3;;;0.7;;
61675;SDS011;47574;52.090;5.244;2022-09-01T09:28:23;1.11;;;0.7;;
61675;SDS011;47574;52.090;5.244;2022-09-01T09:31:44;3.6;;;1.0;;
61675;SDS011;47574;52.090;5.244;2022-09-01T09:33:37;2.31;;;0.8;;
61675;SDS011;47574;52.090;5.244;2022-09-01T09:35:19;1.7;;;0.8;;
61675;SDS011;47574;52.090;5.244;2022-09-01T09:37:14;1.7;;;0.8;;
61675;SDS011;47574;52.090;5.244;2022-09-01T09:39:04;3.1;;;0.7;;
61675;SDS011;47574;52.090;5.244;2022-09-01T09:40:56;3.5;;;0.8;;
61675;SDS011;47574;52.090;5.244;2022-09-01T09:44:20;4.8;;;0.7;;
61675;SDS011;47574;52.090;5.244;2022-09-01T09:46:34;1.8;;;0.8;;
61675;SDS011;47574;52.090;5.244;2022-09-01T09:48:25;1.2;;;0.8;;
61675;SDS011;47574;52.090;5.244;2022-09-01T09:50:10;5.11;;;0.9;;
61675;SDS011;47574;52.090;5.244;2022-09-01T09:51:55;1.5;;;0.8;;
61675;SDS011;47574;52.090;5.244;2022-09-01T09:53:46;2.31;;;0.8;;
61675;SDS011;47574;52.090;5.244;2022-09-01T09:55:25;1.9;;;0.8;;
61675;SDS011;47574;52.090;5.244;2022-09-01T09:58:47;2.9;;;0.7;;
61675;SDS011;47574;52.090;5.244;2022-09-01T10:00:26;2.21;;;1.0;;
61675;SDS011;47574;52.090;5.244;2022-09-01T10:02:36;3.1;;;1.0;;
61675;SDS011;47574;52.090;5.244;2022-09-01T10:04:30;2.21;;;0.9;;
61675;SDS011;47574;52.090;5.244;2022-09-01T10:06:10;1.5;;;0.8;;
61675;SDS011;47574;52.090;5.244;2022-09-01T10:09:35;1.0;;;0.9;;
61675;SDS011;47574;52.090;5.244;2022-09-01T10:11:24;2.5;;;0.9;;
61675;SDS011;47574;52.090;5.244;2022-09-01T10:13:04;2.1;;;0.9;;
61675;SDS011;47574;52.090;5.244;2022-09-01T10:14:47;1.11;;;0.6;;
61675;SDS011;47574;52.090;5.244;2022-09-01T10:16:29;1.9;;;0.9;;
61675;SDS011;47574;52.090;5.244;2022-09-01T10:19:51;4.1;;;2.4;;
61675;SDS011;47574;52.090;5.244;2022-09-01T10:21:32;2.8;;;0.8;;
61675;SDS011;47574;52.090;5.244;2022-09-01T10:23:12;3.4;;;0.8;;
61675;SDS011;47574;52.090;5.244;2022-09-01T10:24:48;2.6;;;0.9;;
61675;SDS011;47574;52.090;5.244;2022-09-01T10:28:08;3.1;;;0.9;;
61675;SDS011;47574;52.090;5.244;2022-09-01T10:29:50;1.9;;;0.7;;
61675;SDS011;47574;52.090;5.244;2022-09-01T10:31:31;1.2;;;0.7;;
61675;SDS011;47574;52.090;5.244;2022-09-01T10:33:10;0.7;;;0.7;;
61675;SDS011;47574;52.090;5.244;2022-09-01T10:36:28;2.31;;;0.8;;
61675;SDS011;47574;52.090;5.244;2022-09-01T10:38:06;0.7;;;0.6;;
61675;SDS011;47574;52.090;5.244;2022-09-01T10:40:18;0.7;;;0.7;;
61675;SDS011;47574;52.090;5.244;2022-09-01T10:42:15;4.41;;;0.9;;
61675;SDS011;47574;52.090;5.244;2022-09-01T10:43:52;2.0;;;0.7;;
61675;SDS011;47574;52.090;5.244;2022-09-01T10:47:10;1.8;;;0.9;;
61675;SDS011;47574;52.090;5.244;2022-09-01T10:48:59;0.9;;;0.7;;
61675;SDS011;47574;52.090;5.244;2022-09-01T10:50:35;2.21;;;0.6;;
61675;SDS011;47574;52.090;5.244;2022-09-01T10:52:11;2.21;;;0.7;;
61675;SDS011;47574;52.090;5.244;2022-09-01T10:54:50;1.2;;;1.11;;
61675;SDS011;47574;52.090;5.244;2022-09-01T10:56:37;1.9;;;0.6;;
61675;SDS011;47574;52.090;5.244;2022-09-01T10:58:23;1.7;;;0.6;;
61675;SDS011;47574;52.090;5.244;2022-09-01T11:00:42;1.0;;;0.6;;
61675;SDS011;47574;52.090;5.244;2022-09-01T11:02:29;1.6;;;1.0;;
61675;SDS011;47574;52.090;5.244;2022-09-01T11:05:59;1.5;;;0.7;;
61675;SDS011;47574;52.090;5.244;2022-09-01T11:07:37;1.2;;;0.9;;
61675;SDS011;47574;52.090;5.244;2022-09-01T11:09:16;2.9;;;0.9;;
61675;SDS011;47574;52.090;5.244;2022-09-01T11:10:58;1.3;;;1.2;;
61675;SDS011;47574;52.090;5.244;2022-09-01T11:12:46;2.8;;;2.21;;
61675;SDS011;47574;52.090;5.244;2022-09-01T11:16:31;1.2;;;0.7;;
61675;SDS011;47574;52.090;5.244;2022-09-01T11:18:13;1.9;;;0.7;;
61675;SDS011;47574;52.090;5.244;2022-09-01T11:19:55;0.9;;;0.7;;
61675;SDS011;47574;52.090;5.244;2022-09-01T11:21:43;1.6;;;0.6;;
61675;SDS011;47574;52.090;5.244;2022-09-01T11:23:22;2.5;;;0.7;;
61675;SDS011;47574;52.090;5.244;2022-09-01T11:27:54;0.8;;;0.8;;
61675;SDS011;47574;52.090;5.244;2022-09-01T11:29:50;3.2;;;0.7;;
61675;SDS011;47574;52.090;5.244;2022-09-01T11:33:21;2.7;;;0.7;;
61675;SDS011;47574;52.090;5.244;2022-09-01T11:35:12;1.7;;;0.6;;
61675;SDS011;47574;52.090;5.244;2022-09-01T11:36:54;1.11;;;0.8;;
61675;SDS011;47574;52.090;5.244;2022-09-01T11:38:37;1.2;;;0.7;;
61675;SDS011;47574;52.090;5.244;2022-09-01T11:40:22;1.6;;;0.6;;
61675;SDS011;47574;52.090;5.244;2022-09-01T11:42:02;1.6;;;0.7;;
61675;SDS011;47574;52.090;5.244;2022-09-01T11:45:22;0.9;;;0.9;;
61675;SDS011;47574;52.090;5.244;2022-09-01T11:47:03;2.31;;;0.9;;
61675;SDS011;47574;52.090;5.244;2022-09-01T11:48:44;4.7;;;0.7;;
61675;SDS011;47574;52.090;5.244;2022-09-01T11:53:39;1.8;;;0.8;;
61675;SDS011;47574;52.090;5.244;2022-09-01T11:55:26;2.4;;;0.6;;
61675;SDS011;47574;52.090;5.244;2022-09-01T11:57:21;1.6;;;0.8;;
61675;SDS011;47574;52.090;5.244;2022-09-01T11:59:02;1.0;;;0.7;;
61675;SDS011;47574;52.090;5.244;2022-09-01T12:02:18;1.3;;;0.7;;
61675;SDS011;47574;52.090;5.244;2022-09-01T12:03:57;1.3;;;0.7;;
61675;SDS011;47574;52.090;5.244;2022-09-01T12:05:59;2.7;;;0.6;;
61675;SDS011;47574;52.090;5.244;2022-09-01T12:07:39;2.8;;;0.6;;
61675;SDS011;47574;52.090;5.244;2022-09-01T12:09:20;0.8;;;0.7;;
61675;SDS011;47574;52.090;5.244;2022-09-01T12:12:40;1.6;;;0.6;;
61675;SDS011;47574;52.090;5.244;2022-09-01T12:14:19;4.2;;;0.7;;
61675;SDS011;47574;52.090;5.244;2022-09-01T12:15:57;3.0;;;0.7;;
61675;SDS011;47574;52.090;5.244;2022-09-01T12:17:35;1.6;;;0.6;;
61675;SDS011;47574;52.090;5.244;2022-09-01T12:21:01;1.0;;;0.6;;
61675;SDS011;47574;52.090;5.244;2022-09-01T12:22:41;0.8;;;0.5;;
61675;SDS011;47574;52.090;5.244;2022-09-01T12:24:18;2.7;;;0.6;;
61675;SDS011;47574;52.090;5.244;2022-09-01T12:25:59;1.7;;;0.7;;
61675;SDS011;47574;52.090;5.244;2022-09-01T12:29:13;1.2;;;0.6;;
61675;SDS011;47574;52.090;5.244;2022-09-01T12:30:52;1.4;;;0.6;;
61675;SDS011;47574;52.090;5.244;2022-09-01T12:32:30;4.3;;;0.8;;
61675;SDS011;47574;52.090;5.244;2022-09-01T12:36:19;1.6;;;0.5;;
61675;SDS011;47574;52.090;5.244;2022-09-01T12:38:31;1.6;;;0.7;;
61675;SDS011;47574;52.090;5.244;2022-09-01T12:40:19;5.6;;;0.9;;
61675;SDS011;47574;52.090;5.244;2022-09-01T12:42:00;1.4;;;0.9;;
61675;SDS011;47574;52.090;5.244;2022-09-01T12:43:44;1.9;;;0.7;;
61675;SDS011;47574;52.090;5.244;2022-09-01T12:45:36;2.9;;;0.7;;
61675;SDS011;47574;52.090;5.244;2022-09-01T12:47:43;1.8;;;0.8;;
61675;SDS011;47574;52.090;5.244;2022-09-01T12:49:32;2.5;;;0.8;;
61675;SDS011;47574;52.090;5.244;2022-09-01T12:51:14;0.6;;;0.6;;
61675;SDS011;47574;52.090;5.244;2022-09-01T12:54:32;3.1;;;0.8;;
61675;SDS011;47574;52.090;5.244;2022-09-01T12:56:45;4.2;;;0.6;;
61675;SDS011;47574;52.090;5.244;2022-09-01T12:58:24;1.6;;;0.5;;
61675;SDS011;47574;52.090;5.244;2022-09-01T13:00:05;1.6;;;0.8;;
61675;SDS011;47574;52.090;5.244;2022-09-01T13:01:47;2.5;;;0.8;;
61675;SDS011;47574;52.090;5.244;2022-09-01T13:05:20;4.3;;;0.9;;
61675;SDS011;47574;52.090;5.244;2022-09-01T13:07:02;0.9;;;0.6;;
61675;SDS011;47574;52.090;5.244;2022-09-01T13:08:42;1.4;;;0.6;;
61675;SDS011;47574;52.090;5.244;2022-09-01T13:10:19;1.5;;;0.9;;
61675;SDS011;47574;52.090;5.244;2022-09-01T13:14:04;2.1;;;0.6;;